createdAt,value
2022-09-15T00:01:09.544Z,1.65
2022-09-15T00:03:38.824Z,1.70
2022-09-15T00:06:07.138Z,1.60
2022-09-15T00:08:35.015Z,1.60
2022-09-15T00:11:07.227Z,1.67
2022-09-15T00:13:36.872Z,1.80
2022-09-15T00:16:05.834Z,1.75
2022-09-15T00:18:34.201Z,2.00
2022-09-15T00:21:06.678Z,1.13
2022-09-15T00:23:34.626Z,1.50
2022-09-15T00:26:02.625Z,2.03
2022-09-15T00:28:30.105Z,1.40
2022-09-15T00:30:57.704Z,1.35
2022-09-15T00:33:25.341Z,1.60
2022-09-15T00:35:54.429Z,1.42
2022-09-15T00:38:23.423Z,1.40
2022-09-15T00:40:53.171Z,1.75
2022-09-15T00:43:22.170Z,1.58
2022-09-15T00:45:50.571Z,1.60
2022-09-15T00:48:21.721Z,1.75
2022-09-15T00:50:54.594Z,1.70
2022-09-15T00:53:24.521Z,1.50
2022-09-15T00:55:52.805Z,1.42
2022-09-15T00:58:24.354Z,1.65
2022-09-15T01:00:56.338Z,1.73
2022-09-15T01:03:24.681Z,1.38
2022-09-15T01:05:55.639Z,1.52
2022-09-15T01:08:32.290Z,1.50
2022-09-15T01:11:00.550Z,1.38
2022-09-15T01:13:29.772Z,1.90
2022-09-15T01:16:07.303Z,1.33
2022-09-15T01:18:42.508Z,1.60
2022-09-15T01:21:32.181Z,1.70
2022-09-15T01:24:35.064Z,1.40
2022-09-15T01:27:40.434Z,1.70
2022-09-15T01:30:12.248Z,1.80
2022-09-15T01:33:05.353Z,1.60
2022-09-15T01:35:43.523Z,2.10
2022-09-15T01:38:18.133Z,1.40
2022-09-15T01:40:51.960Z,1.80
2022-09-15T01:43:21.440Z,1.75
2022-09-15T01:45:51.518Z,1.90
2022-09-15T01:48:23.258Z,1.67
2022-09-15T01:50:56.625Z,1.90
2022-09-15T01:53:25.614Z,1.85
2022-09-15T01:55:57.284Z,1.75
2022-09-15T01:58:24.886Z,1.77
2022-09-15T02:00:58.048Z,1.73
2022-09-15T02:03:32.231Z,1.95
2022-09-15T02:06:04.614Z,1.75
2022-09-15T02:08:39.080Z,1.90
2022-09-15T02:11:16.655Z,1.85
2022-09-15T02:13:49.069Z,2.10
2022-09-15T02:16:21.439Z,1.90
2022-09-15T02:19:00.197Z,2.00
2022-09-15T02:21:33.618Z,2.25
2022-09-15T02:24:06.709Z,2.47
2022-09-15T02:26:36.224Z,2.38
2022-09-15T02:29:09.481Z,2.28
2022-09-15T02:31:40.222Z,1.80
2022-09-15T02:34:12.335Z,2.20
2022-09-15T02:36:42.401Z,2.00
2022-09-15T02:39:14.389Z,2.10
2022-09-15T02:41:41.976Z,2.13
2022-09-15T02:44:10.404Z,1.92
2022-09-15T02:46:40.245Z,2.40
2022-09-15T02:49:10.464Z,2.50
2022-09-15T02:51:37.976Z,2.65
2022-09-15T02:54:05.697Z,2.30
2022-09-15T02:56:33.277Z,2.25
2022-09-15T02:59:00.860Z,2.42
2022-09-15T03:01:32.215Z,2.60
2022-09-15T03:04:01.874Z,2.20
2022-09-15T03:06:34.369Z,2.45
2022-09-15T03:09:04.790Z,2.25
2022-09-15T03:11:32.729Z,2.20
2022-09-15T03:14:02.754Z,2.50
2022-09-15T03:16:32.195Z,2.30
2022-09-15T03:19:01.957Z,2.25
2022-09-15T03:21:30.535Z,2.25
2022-09-15T03:23:59.441Z,3.80
2022-09-15T03:26:27.177Z,2.35
2022-09-15T03:28:54.792Z,2.25
2022-09-15T03:31:22.479Z,2.53
2022-09-15T03:33:50.200Z,2.40
2022-09-15T03:36:19.128Z,3.35
2022-09-15T03:38:49.492Z,2.70
2022-09-15T03:41:17.023Z,2.65
2022-09-15T03:43:44.584Z,2.92
2022-09-15T03:46:12.713Z,2.35
2022-09-15T03:48:40.834Z,3.10
2022-09-15T03:51:10.985Z,1.95
2022-09-15T03:53:42.466Z,2.40
2022-09-15T03:56:12.090Z,1.67
2022-09-15T03:58:40.069Z,2.58
2022-09-15T04:01:07.654Z,1.75
2022-09-15T04:03:40.228Z,1.98
2022-09-15T04:06:11.391Z,2.08
2022-09-15T04:08:40.333Z,2.83
2022-09-15T04:11:08.495Z,2.22
2022-09-15T04:13:36.859Z,2.45
2022-09-15T04:16:06.730Z,2.00
2022-09-15T04:18:34.570Z,2.22
2022-09-15T04:21:03.688Z,1.88
2022-09-15T04:23:31.199Z,2.30
2022-09-15T04:26:02.007Z,3.00
2022-09-15T04:28:32.731Z,1.80
2022-09-15T04:31:08.344Z,2.03
2022-09-15T04:33:36.929Z,1.75
2022-09-15T04:36:07.008Z,2.10
2022-09-15T04:38:35.708Z,2.00
2022-09-15T04:41:04.965Z,1.67
2022-09-15T04:43:33.784Z,1.90
2022-09-15T04:46:01.717Z,2.05
2022-09-15T04:48:29.239Z,1.70
2022-09-15T04:51:02.203Z,1.85
2022-09-15T04:53:29.886Z,1.90
2022-09-15T04:56:04.960Z,1.98
2022-09-15T04:58:35.993Z,2.25
2022-09-15T05:01:08.767Z,1.80
2022-09-15T05:03:37.412Z,1.90
2022-09-15T05:06:06.652Z,1.55
2022-09-15T05:08:34.538Z,1.90
2022-09-15T05:11:06.024Z,1.83
2022-09-15T05:13:34.733Z,1.50
2022-09-15T05:16:06.997Z,2.03
2022-09-15T05:18:35.062Z,1.92
2022-09-15T05:21:03.839Z,1.40
2022-09-15T05:23:31.535Z,1.40
2022-09-15T05:26:00.383Z,1.30
2022-09-15T05:28:29.410Z,1.50
2022-09-15T05:30:57.117Z,1.42
2022-09-15T05:33:25.328Z,1.58
2022-09-15T05:35:53.669Z,1.50
2022-09-15T05:38:21.505Z,1.45
2022-09-15T05:40:49.759Z,1.55
2022-09-15T05:43:18.132Z,1.13
2022-09-15T05:45:55.342Z,1.50
2022-09-15T05:48:23.077Z,1.42
2022-09-15T05:50:51.457Z,1.30
2022-09-15T05:53:19.256Z,1.20
2022-09-15T05:55:47.131Z,1.50
2022-09-15T05:58:15.122Z,1.02
2022-09-15T06:00:42.935Z,1.42
2022-09-15T06:03:15.274Z,1.58
2022-09-15T06:05:43.230Z,1.58
2022-09-15T06:08:10.989Z,1.23
2022-09-15T06:10:41.575Z,1.35
2022-09-15T06:13:09.516Z,1.60
2022-09-15T06:15:37.195Z,1.10
2022-09-15T06:18:04.908Z,1.50
2022-09-15T06:20:34.127Z,1.40
2022-09-15T06:23:01.662Z,1.35
2022-09-15T06:25:29.391Z,1.38
2022-09-15T06:27:57.108Z,1.40
2022-09-15T06:30:24.961Z,1.27
2022-09-15T06:32:52.453Z,1.92
2022-09-15T06:35:20.112Z,1.23
2022-09-15T06:37:48.969Z,1.77
2022-09-15T06:40:17.536Z,1.38
2022-09-15T06:42:45.097Z,1.63
2022-09-15T06:45:12.940Z,1.15
2022-09-15T06:47:40.471Z,1.40
2022-09-15T06:50:08.792Z,1.85
2022-09-15T06:52:36.506Z,1.05
2022-09-15T06:55:06.348Z,1.50
2022-09-15T06:57:34.180Z,1.10
2022-09-15T07:00:02.092Z,1.70
2022-09-15T07:02:29.874Z,1.35
2022-09-15T07:04:57.678Z,1.23
2022-09-15T07:07:25.778Z,1.30
2022-09-15T07:09:53.338Z,1.58
2022-09-15T07:12:22.290Z,1.45
2022-09-15T07:14:49.829Z,1.70
2022-09-15T07:17:17.500Z,1.40
2022-09-15T07:19:45.406Z,1.42
2022-09-15T07:22:13.054Z,1.38
2022-09-15T07:24:40.738Z,1.08
2022-09-15T07:27:08.798Z,1.45
2022-09-15T07:29:38.756Z,1.50
2022-09-15T07:32:06.733Z,1.23
2022-09-15T07:34:34.332Z,1.50
2022-09-15T07:37:02.368Z,1.15
2022-09-15T07:39:30.315Z,1.42
2022-09-15T07:41:57.885Z,2.17
2022-09-15T07:44:25.691Z,1.80
2022-09-15T07:46:54.497Z,1.60
2022-09-15T07:49:22.095Z,1.70
2022-09-15T07:51:49.644Z,1.63
2022-09-15T07:54:21.969Z,1.35
2022-09-15T07:56:50.504Z,1.38
2022-09-15T07:59:18.081Z,1.42
2022-09-15T08:01:45.586Z,1.23
2022-09-15T08:04:14.544Z,1.50
2022-09-15T08:06:42.073Z,1.00
2022-09-15T08:09:14.564Z,1.05
2022-09-15T08:11:42.842Z,1.20
2022-09-15T08:14:10.983Z,1.38
2022-09-15T08:16:39.478Z,1.33
2022-09-15T08:19:07.075Z,1.33
2022-09-15T08:21:35.935Z,0.90
2022-09-15T08:24:04.007Z,1.17
2022-09-15T08:26:31.598Z,2.85
2022-09-15T08:28:59.455Z,1.00
2022-09-15T08:31:27.357Z,1.08
2022-09-15T08:33:56.227Z,1.20
2022-09-15T08:36:24.512Z,1.13
2022-09-15T08:38:53.422Z,1.05
2022-09-15T08:41:24.639Z,1.25
2022-09-15T08:43:58.762Z,0.90
2022-09-15T08:46:31.556Z,1.00
2022-09-15T08:49:04.431Z,0.88
2022-09-15T08:51:38.003Z,1.05
2022-09-15T08:54:14.944Z,0.90
2022-09-15T08:56:44.452Z,1.00
2022-09-15T08:59:15.773Z,1.00
2022-09-15T09:01:53.063Z,2.45
2022-09-15T09:04:33.933Z,1.42
2022-09-15T09:07:13.916Z,1.50
2022-09-15T09:09:50.660Z,0.90
2022-09-15T09:12:33.543Z,1.27
2022-09-15T09:15:16.695Z,1.10
2022-09-15T09:18:02.593Z,1.55
2022-09-15T09:20:38.458Z,1.13
2022-09-15T09:23:13.000Z,1.30
2022-09-15T09:25:43.661Z,0.95
2022-09-15T09:28:26.246Z,0.73
2022-09-15T09:30:54.469Z,0.70
2022-09-15T09:33:30.389Z,0.93
2022-09-15T09:36:02.192Z,1.40
2022-09-15T09:38:35.668Z,1.00
2022-09-15T09:41:06.449Z,0.95
2022-09-15T09:43:37.748Z,0.80
2022-09-15T09:46:15.286Z,1.25
2022-09-15T09:48:46.618Z,0.82
2022-09-15T09:51:31.779Z,1.13
2022-09-15T09:54:06.252Z,0.93
2022-09-15T09:56:35.172Z,1.08
2022-09-15T09:59:03.319Z,0.77
2022-09-15T10:01:31.304Z,0.90
2022-09-15T10:04:14.369Z,0.70
2022-09-15T10:06:42.917Z,1.00
2022-09-15T10:09:17.100Z,1.00
2022-09-15T10:11:49.475Z,1.20
2022-09-15T10:14:23.310Z,0.90
2022-09-15T10:16:58.707Z,0.75
2022-09-15T10:19:27.293Z,1.05
2022-09-15T10:21:55.393Z,0.98
2022-09-15T10:24:34.655Z,1.25
2022-09-15T10:27:21.985Z,1.00
2022-09-15T10:29:49.889Z,1.00
2022-09-15T10:32:25.164Z,1.00
2022-09-15T10:35:01.460Z,0.82
2022-09-15T10:37:32.674Z,0.75
2022-09-15T10:40:04.201Z,0.90
2022-09-15T10:42:51.745Z,1.05
2022-09-15T10:45:26.896Z,0.80
2022-09-15T10:48:10.870Z,0.90
2022-09-15T10:50:50.159Z,0.70
2022-09-15T10:53:24.783Z,1.02
2022-09-15T10:56:03.305Z,0.70
2022-09-15T10:58:49.476Z,0.90
2022-09-15T11:01:32.313Z,0.50
2022-09-15T11:04:34.440Z,0.60
2022-09-15T11:07:09.682Z,0.70
2022-09-15T11:09:44.105Z,0.68
2022-09-15T11:12:34.993Z,0.60
2022-09-15T11:15:19.333Z,0.77
2022-09-15T11:18:00.878Z,0.88
2022-09-15T11:20:39.695Z,0.80
2022-09-15T11:23:15.523Z,0.52
2022-09-15T11:25:46.119Z,1.13
2022-09-15T11:28:19.531Z,1.13
2022-09-15T11:30:54.340Z,0.68
2022-09-15T11:33:27.100Z,0.80
2022-09-15T11:36:00.342Z,1.10
2022-09-15T11:38:36.626Z,1.50
2022-09-15T11:41:18.807Z,0.80
2022-09-15T11:43:54.911Z,0.85
2022-09-15T11:46:29.362Z,0.85
2022-09-15T11:49:00.781Z,0.88
2022-09-15T11:51:35.756Z,1.33
2022-09-15T11:54:08.549Z,1.00
2022-09-15T11:56:41.773Z,0.90
2022-09-15T11:59:20.462Z,1.00
2022-09-15T12:01:53.365Z,0.90
2022-09-15T12:04:26.470Z,1.15
2022-09-15T12:09:27.709Z,0.70
2022-09-15T12:12:01.804Z,1.05
2022-09-15T12:14:33.839Z,1.20
2022-09-15T12:17:06.300Z,1.10
2022-09-15T12:19:47.232Z,0.95
2022-09-15T12:22:20.585Z,0.70
2022-09-15T12:24:53.390Z,1.05
2022-09-15T12:27:22.202Z,1.13
2022-09-15T12:29:50.945Z,1.10
2022-09-15T12:32:22.755Z,1.17
2022-09-15T12:35:06.453Z,1.08
2022-09-15T12:37:40.367Z,0.90
2022-09-15T12:40:27.762Z,0.90
2022-09-15T12:42:55.902Z,1.17
2022-09-15T12:45:27.823Z,1.20
2022-09-15T12:47:58.678Z,0.70
2022-09-15T12:50:30.461Z,1.95
2022-09-15T12:53:00.822Z,0.80
2022-09-15T12:55:31.754Z,0.57
2022-09-15T12:58:02.102Z,0.85
2022-09-15T13:00:36.160Z,1.15
2022-09-15T13:03:06.892Z,0.73
2022-09-15T13:06:13.335Z,1.00
2022-09-15T13:08:52.081Z,0.90
2022-09-15T13:11:31.801Z,0.90
2022-09-15T13:14:10.655Z,1.10
2022-09-15T13:16:46.627Z,1.27
2022-09-15T13:19:20.486Z,0.98
2022-09-15T13:21:56.812Z,0.90
2022-09-15T13:24:33.588Z,0.93
2022-09-15T13:27:02.320Z,1.48
2022-09-15T13:29:32.157Z,1.00
2022-09-15T13:32:10.945Z,0.82
2022-09-15T13:35:03.278Z,0.85
2022-09-15T13:38:14.058Z,1.17
2022-09-15T13:41:20.695Z,1.33
2022-09-15T13:44:18.161Z,1.20
2022-09-15T13:46:55.135Z,1.38
2022-09-15T13:49:49.491Z,1.25
2022-09-15T13:52:36.892Z,1.13
2022-09-15T13:55:20.969Z,1.48
2022-09-15T14:00:48.314Z,1.10
2022-09-15T14:03:23.866Z,1.10
2022-09-15T14:05:53.924Z,0.95
2022-09-15T14:08:25.489Z,0.90
2022-09-15T14:10:57.270Z,0.98
2022-09-15T14:13:27.827Z,0.88
2022-09-15T14:16:00.633Z,0.95
2022-09-15T14:18:31.826Z,1.58
2022-09-15T14:21:02.994Z,1.00
2022-09-15T14:23:31.418Z,0.82
2022-09-15T14:26:00.997Z,0.90
2022-09-15T14:28:32.172Z,1.23
2022-09-15T14:31:00.822Z,1.10
2022-09-15T14:33:37.867Z,0.88
2022-09-15T14:36:23.722Z,0.80
2022-09-15T14:39:08.810Z,0.80
2022-09-15T14:41:37.371Z,1.50
2022-09-15T14:45:55.872Z,0.93
2022-09-15T14:47:14.970Z,1.10
2022-09-15T14:49:42.554Z,1.40
2022-09-15T14:52:25.124Z,0.93
2022-09-15T14:54:58.330Z,1.02
2022-09-15T14:57:31.005Z,0.85
2022-09-15T15:00:03.997Z,0.68
2022-09-15T15:02:49.352Z,0.70
2022-09-15T15:05:22.217Z,0.88
2022-09-15T15:07:52.078Z,0.90
2022-09-15T15:10:22.523Z,1.10
2022-09-15T15:12:53.204Z,1.10
2022-09-15T15:15:21.100Z,1.10
2022-09-15T15:17:50.844Z,0.98
2022-09-15T15:20:22.736Z,1.00
2022-09-15T15:23:12.447Z,1.00
2022-09-15T15:25:41.675Z,1.00
2022-09-15T15:28:30.437Z,1.63
2022-09-15T15:31:14.201Z,1.00
2022-09-15T15:33:49.649Z,1.20
2022-09-15T15:36:22.011Z,1.17
2022-09-15T15:38:53.724Z,1.13
2022-09-15T15:41:24.163Z,1.67
2022-09-15T15:44:00.203Z,1.10
2022-09-15T15:46:46.207Z,1.10
2022-09-15T15:49:13.913Z,1.20
2022-09-15T15:51:41.908Z,0.95
2022-09-15T15:54:10.950Z,1.52
2022-09-15T15:56:38.473Z,1.30
2022-09-15T15:59:06.202Z,1.40
2022-09-15T16:01:34.032Z,1.50
2022-09-15T16:04:01.784Z,1.50
2022-09-15T16:06:29.413Z,1.10
2022-09-15T16:08:59.078Z,1.08
2022-09-15T16:11:28.045Z,1.00
2022-09-15T16:13:56.238Z,1.10
2022-09-15T16:16:25.827Z,1.05
2022-09-15T16:18:54.378Z,2.28
2022-09-15T16:21:28.238Z,1.00
2022-09-15T16:23:55.847Z,1.08
2022-09-15T16:26:25.312Z,1.75
2022-09-15T16:28:54.247Z,0.90
2022-09-15T16:31:21.886Z,1.35
2022-09-15T16:33:49.602Z,1.48
2022-09-15T16:36:18.577Z,1.42
2022-09-15T16:38:47.152Z,1.30
2022-09-15T16:41:16.557Z,1.58
2022-09-15T16:43:44.874Z,1.30
2022-09-15T16:46:15.011Z,1.00
2022-09-15T16:48:43.878Z,1.80
2022-09-15T16:51:25.287Z,1.10
2022-09-15T16:53:56.726Z,1.33
2022-09-15T16:56:24.474Z,1.30
2022-09-15T16:58:58.810Z,1.30
2022-09-15T17:01:29.042Z,1.33
2022-09-15T17:03:56.664Z,2.58
2022-09-15T17:06:24.336Z,1.27
2022-09-15T17:08:51.884Z,1.10
2022-09-15T17:11:23.758Z,1.63
2022-09-15T17:13:51.596Z,1.15
2022-09-15T17:16:20.194Z,1.30
2022-09-15T17:18:49.745Z,1.38
2022-09-15T17:21:18.906Z,1.08
2022-09-15T17:23:49.344Z,1.52
2022-09-15T17:26:20.659Z,2.40
2022-09-15T17:28:48.762Z,1.35
2022-09-15T17:31:18.376Z,1.25
2022-09-15T17:33:47.001Z,1.42
2022-09-15T17:36:16.228Z,1.42
2022-09-15T17:38:44.852Z,1.45
2022-09-15T17:41:15.688Z,1.50
2022-09-15T17:43:43.511Z,1.33
2022-09-15T17:46:11.265Z,1.27
2022-09-15T17:48:39.628Z,1.67
2022-09-15T17:51:08.155Z,1.38
2022-09-15T17:53:37.128Z,1.67
2022-09-15T17:56:05.004Z,1.65
2022-09-15T17:58:33.318Z,1.90
2022-09-15T18:01:01.376Z,1.50
2022-09-15T18:03:31.151Z,1.50
2022-09-15T18:06:00.213Z,1.60
2022-09-15T18:08:28.728Z,1.70
2022-09-15T18:10:57.703Z,1.35
2022-09-15T18:13:27.464Z,1.48
2022-09-15T18:15:56.085Z,1.75
2022-09-15T18:18:25.520Z,1.20
2022-09-15T18:20:54.644Z,1.55
2022-09-15T18:23:24.082Z,1.23
2022-09-15T18:25:52.178Z,1.70
2022-09-15T18:28:21.676Z,1.23
2022-09-15T18:30:50.949Z,1.33
2022-09-15T18:33:20.715Z,1.98
2022-09-15T18:35:49.733Z,1.33
2022-09-15T18:38:18.691Z,1.88
2022-09-15T18:40:47.502Z,2.65
2022-09-15T18:43:15.050Z,1.73
2022-09-15T18:45:44.167Z,2.88
2022-09-15T18:48:13.016Z,1.70
2022-09-15T18:50:41.322Z,1.65
2022-09-15T18:53:08.995Z,1.55
2022-09-15T18:55:37.147Z,1.13
2022-09-15T18:58:04.708Z,1.08
2022-09-15T19:00:32.738Z,0.90
2022-09-15T19:03:06.395Z,1.17
2022-09-15T19:05:34.481Z,1.23
2022-09-15T19:08:02.654Z,1.00
2022-09-15T19:10:30.703Z,1.23
2022-09-15T19:12:58.307Z,1.58
2022-09-15T19:15:29.184Z,1.52
2022-09-15T19:17:56.927Z,1.40
2022-09-15T19:20:25.779Z,2.03
2022-09-15T19:22:53.352Z,1.42
2022-09-15T19:25:21.362Z,1.30
2022-09-15T19:27:48.997Z,1.30
2022-09-15T19:30:16.633Z,1.20
2022-09-15T19:32:44.248Z,0.93
2022-09-15T19:35:11.817Z,1.13
2022-09-15T19:37:42.001Z,1.08
2022-09-15T19:40:12.940Z,1.38
2022-09-15T19:42:42.382Z,1.40
2022-09-15T19:45:12.488Z,1.40
2022-09-15T19:47:40.999Z,1.20
2022-09-15T19:50:11.599Z,1.85
2022-09-15T19:52:40.777Z,1.10
2022-09-15T19:55:10.016Z,1.63
2022-09-15T19:57:39.283Z,0.93
2022-09-15T20:00:09.591Z,1.48
2022-09-15T20:02:37.435Z,0.93
2022-09-15T20:05:05.740Z,1.25
2022-09-15T20:07:33.667Z,1.92
2022-09-15T20:10:02.617Z,1.17
2022-09-15T20:12:31.146Z,1.23
2022-09-15T20:14:58.886Z,0.98
2022-09-15T20:17:26.655Z,1.63
2022-09-15T20:19:54.210Z,1.33
2022-09-15T20:22:21.874Z,1.20
2022-09-15T20:24:49.726Z,1.42
2022-09-15T20:27:18.757Z,1.77
2022-09-15T20:29:46.303Z,1.73
2022-09-15T20:32:13.892Z,1.50
2022-09-15T20:34:41.770Z,1.55
2022-09-15T20:37:09.368Z,1.70
2022-09-15T20:39:36.992Z,1.92
2022-09-15T20:42:05.246Z,2.55
2022-09-15T20:44:34.301Z,1.83
2022-09-15T20:47:01.863Z,2.35
2022-09-15T20:49:29.458Z,1.45
2022-09-15T20:51:57.102Z,1.30
2022-09-15T20:54:24.671Z,2.20
2022-09-15T20:56:52.297Z,1.70
2022-09-15T20:59:21.901Z,1.98
2022-09-15T21:01:50.918Z,1.92
2022-09-15T21:04:30.985Z,1.60
2022-09-15T21:06:59.160Z,1.90
2022-09-15T21:09:31.561Z,1.35
2022-09-15T21:12:01.376Z,1.40
2022-09-15T21:14:29.303Z,1.80
2022-09-15T21:16:58.468Z,1.45
2022-09-15T21:19:26.824Z,1.60
2022-09-15T21:21:54.850Z,2.00
2022-09-15T21:24:22.790Z,1.50
2022-09-15T21:27:07.944Z,1.55
2022-09-15T21:29:37.740Z,2.22
2022-09-15T21:32:07.201Z,1.73
2022-09-15T21:34:37.994Z,1.65
2022-09-15T21:37:11.254Z,1.40
2022-09-15T21:39:41.589Z,1.70
2022-09-15T21:42:10.137Z,1.88
2022-09-15T21:44:38.534Z,1.70
2022-09-15T21:47:10.381Z,2.03
2022-09-15T21:49:38.071Z,1.77
2022-09-15T21:52:05.633Z,1.50
2022-09-15T21:54:33.406Z,1.50
2022-09-15T21:57:01.053Z,1.92
2022-09-15T21:59:28.664Z,1.48
2022-09-15T22:01:57.703Z,1.73
2022-09-15T22:04:26.773Z,1.40
2022-09-15T22:06:54.395Z,1.50
2022-09-15T22:09:22.232Z,1.90
2022-09-15T22:11:50.010Z,2.00
2022-09-15T22:14:17.770Z,1.95
2022-09-15T22:16:45.420Z,1.77
2022-09-15T22:19:13.584Z,1.80
2022-09-15T22:21:42.491Z,1.85
2022-09-15T22:24:12.565Z,1.90
2022-09-15T22:26:41.017Z,1.83
2022-09-15T22:29:08.634Z,1.90
2022-09-15T22:31:36.649Z,2.30
2022-09-15T22:34:04.929Z,1.98
2022-09-15T22:36:33.123Z,2.05
2022-09-15T22:39:05.268Z,1.75
2022-09-15T22:41:36.373Z,2.15
2022-09-15T22:44:05.334Z,1.70
2022-09-15T22:46:33.569Z,3.03
2022-09-15T22:49:01.612Z,1.85
2022-09-15T22:51:29.271Z,2.10
2022-09-15T22:53:58.421Z,1.80
2022-09-15T22:56:27.557Z,1.70
2022-09-15T22:58:56.470Z,1.73
2022-09-15T23:01:26.646Z,1.40
2022-09-15T23:03:55.904Z,1.98
2022-09-15T23:06:24.499Z,1.35
2022-09-15T23:08:53.213Z,1.17
2022-09-15T23:11:21.232Z,1.30
2022-09-15T23:13:50.730Z,1.33
2022-09-15T23:16:18.736Z,1.48
2022-09-15T23:18:46.731Z,1.55
2022-09-15T23:21:14.843Z,1.48
2022-09-15T23:23:44.369Z,1.42
2022-09-15T23:26:13.328Z,1.90
2022-09-15T23:28:41.240Z,1.75
2022-09-15T23:31:11.988Z,1.40
2022-09-15T23:33:40.636Z,1.27
2022-09-15T23:36:10.540Z,1.48
2022-09-15T23:38:39.433Z,1.30
2022-09-15T23:41:07.288Z,1.77
2022-09-15T23:43:35.296Z,1.75
2022-09-15T23:46:03.787Z,1.67
2022-09-15T23:48:32.783Z,1.75
2022-09-15T23:51:00.883Z,1.90
2022-09-15T23:53:28.608Z,1.70
2022-09-15T23:55:56.323Z,1.88
2022-09-15T23:58:23.845Z,1.77
